createdAt,value
2022-10-22T00:01:50.919Z,88.09
2022-10-22T00:04:19.283Z,87.36
2022-10-22T00:06:49.105Z,87.65
2022-10-22T00:09:17.526Z,88.10
2022-10-22T00:11:45.984Z,87.83
2022-10-22T00:14:14.348Z,88.33
2022-10-22T00:16:42.666Z,88.11
2022-10-22T00:19:11.322Z,88.20
2022-10-22T00:21:39.657Z,87.97
2022-10-22T00:24:09.615Z,87.86
2022-10-22T00:26:39.530Z,87.80
2022-10-22T00:29:07.901Z,87.70
2022-10-22T00:31:36.204Z,88.04
2022-10-22T00:34:04.653Z,87.43
2022-10-22T00:36:32.973Z,88.09
2022-10-22T00:39:01.369Z,87.84
2022-10-22T00:41:31.364Z,88.28
2022-10-22T00:44:01.462Z,88.28
2022-10-22T00:46:30.264Z,88.10
2022-10-22T00:49:00.537Z,87.91
2022-10-22T00:51:31.095Z,88.31
2022-10-22T00:54:03.438Z,87.92
2022-10-22T00:56:34.099Z,87.83
2022-10-22T00:59:04.024Z,88.18
2022-10-22T01:01:33.723Z,87.76
2022-10-22T01:04:02.280Z,87.50
2022-10-22T01:06:32.445Z,87.30
2022-10-22T01:09:10.848Z,87.34
2022-10-22T01:11:50.886Z,87.17
2022-10-22T01:14:23.206Z,87.23
2022-10-22T01:16:56.612Z,87.04
2022-10-22T01:19:46.688Z,86.93
2022-10-22T01:22:18.626Z,87.56
2022-10-22T01:24:57.710Z,87.75
2022-10-22T01:27:32.856Z,87.60
2022-10-22T01:30:05.295Z,87.82
2022-10-22T01:32:38.272Z,88.51
2022-10-22T01:35:09.423Z,89.13
2022-10-22T01:37:47.699Z,88.79
2022-10-22T01:40:17.435Z,89.07
2022-10-22T01:42:58.800Z,89.01
2022-10-22T01:45:28.770Z,89.60
2022-10-22T01:48:04.992Z,89.07
2022-10-22T01:50:46.117Z,89.83
2022-10-22T01:53:26.087Z,89.40
2022-10-22T01:56:07.176Z,89.50
2022-10-22T01:58:42.658Z,89.69
2022-10-22T02:01:17.305Z,89.84
2022-10-22T02:03:50.827Z,89.78
2022-10-22T02:06:20.956Z,90.53
2022-10-22T02:08:50.396Z,89.83
2022-10-22T02:11:18.938Z,90.26
2022-10-22T02:13:49.801Z,90.07
2022-10-22T02:16:21.846Z,90.28
2022-10-22T02:18:52.636Z,89.80
2022-10-22T02:21:21.262Z,89.96
2022-10-22T02:23:49.852Z,90.04
2022-10-22T02:26:22.974Z,89.21
2022-10-22T02:28:58.677Z,89.12
2022-10-22T02:31:31.849Z,88.93
2022-10-22T02:34:08.120Z,89.52
2022-10-22T02:36:38.499Z,88.69
2022-10-22T02:39:07.519Z,88.99
2022-10-22T02:41:36.257Z,88.47
2022-10-22T02:44:09.429Z,89.23
2022-10-22T02:46:39.714Z,88.84
2022-10-22T02:49:08.102Z,89.21
2022-10-22T02:51:36.417Z,88.82
2022-10-22T02:54:04.896Z,89.35
2022-10-22T02:56:33.554Z,88.71
2022-10-22T02:59:01.859Z,89.34
2022-10-22T03:01:30.209Z,88.59
2022-10-22T03:03:59.945Z,88.99
2022-10-22T03:06:28.287Z,89.03
2022-10-22T03:08:57.621Z,88.94
2022-10-22T03:11:26.151Z,89.37
2022-10-22T03:13:54.516Z,89.15
2022-10-22T03:16:22.864Z,88.90
2022-10-22T03:18:51.184Z,88.88
2022-10-22T03:21:27.713Z,88.63
2022-10-22T03:23:56.470Z,88.64
2022-10-22T03:26:25.334Z,89.32
2022-10-22T03:28:53.738Z,89.20
2022-10-22T03:31:22.033Z,89.25
2022-10-22T03:33:50.356Z,89.36
2022-10-22T03:36:18.841Z,88.66
2022-10-22T03:38:48.664Z,89.33
2022-10-22T03:41:17.088Z,89.14
2022-10-22T03:43:49.813Z,89.22
2022-10-22T03:46:18.129Z,89.47
2022-10-22T03:48:46.586Z,89.48
2022-10-22T03:51:14.939Z,89.41
2022-10-22T03:53:43.266Z,89.63
2022-10-22T03:56:14.003Z,89.93
2022-10-22T03:58:42.809Z,89.62
2022-10-22T04:01:13.066Z,89.60
2022-10-22T04:03:42.093Z,89.33
2022-10-22T04:06:11.961Z,89.32
2022-10-22T04:08:41.371Z,88.91
2022-10-22T04:11:10.247Z,89.42
2022-10-22T04:13:40.343Z,89.22
2022-10-22T04:16:10.145Z,89.32
2022-10-22T04:18:40.130Z,89.67
2022-10-22T04:21:09.779Z,89.76
2022-10-22T04:23:38.106Z,89.12
2022-10-22T04:26:08.212Z,89.71
2022-10-22T04:28:36.692Z,89.55
2022-10-22T04:31:10.675Z,89.07
2022-10-22T04:33:39.280Z,88.69
2022-10-22T04:36:09.314Z,89.51
2022-10-22T04:38:37.582Z,89.49
2022-10-22T04:41:13.551Z,88.95
2022-10-22T04:43:42.329Z,89.25
2022-10-22T04:46:15.873Z,88.54
2022-10-22T04:48:45.020Z,89.26
2022-10-22T04:51:15.073Z,88.79
2022-10-22T04:53:43.382Z,89.20
2022-10-22T04:56:16.326Z,88.87
2022-10-22T04:58:45.139Z,88.66
2022-10-22T05:01:17.195Z,88.73
2022-10-22T05:03:46.103Z,89.08
2022-10-22T05:06:14.864Z,88.74
2022-10-22T05:08:43.625Z,88.53
2022-10-22T05:11:13.577Z,88.53
2022-10-22T05:13:42.068Z,88.52
2022-10-22T05:16:11.052Z,88.33
2022-10-22T05:18:42.124Z,87.88
2022-10-22T05:21:14.551Z,87.43
2022-10-22T05:23:43.028Z,87.25
2022-10-22T05:26:12.630Z,87.49
2022-10-22T05:28:41.516Z,87.40
2022-10-22T05:31:11.809Z,86.60
2022-10-22T05:33:42.488Z,86.29
2022-10-22T05:36:12.723Z,86.10
2022-10-22T05:38:41.144Z,86.05
2022-10-22T05:41:11.408Z,85.95
2022-10-22T05:43:40.167Z,85.85
2022-10-22T05:46:10.559Z,85.07
2022-10-22T05:48:39.140Z,85.25
2022-10-22T05:51:11.254Z,84.80
2022-10-22T05:53:42.898Z,84.59
2022-10-22T05:56:14.534Z,84.68
2022-10-22T05:58:43.153Z,84.83
2022-10-22T06:01:14.090Z,84.50
2022-10-22T06:03:43.047Z,84.21
2022-10-22T06:06:20.148Z,84.29
2022-10-22T06:08:49.305Z,83.84
2022-10-22T06:11:18.695Z,83.17
2022-10-22T06:13:47.539Z,83.33
2022-10-22T06:16:16.226Z,82.71
2022-10-22T06:18:44.588Z,82.51
2022-10-22T06:21:16.036Z,82.40
2022-10-22T06:23:45.327Z,82.19
2022-10-22T06:26:13.799Z,81.85
2022-10-22T06:28:42.093Z,81.73
2022-10-22T06:31:12.950Z,81.44
2022-10-22T06:33:42.515Z,81.52
2022-10-22T06:36:12.921Z,81.11
2022-10-22T06:38:45.579Z,81.08
2022-10-22T06:41:15.213Z,81.02
2022-10-22T06:43:45.384Z,80.87
2022-10-22T06:46:17.541Z,80.69
2022-10-22T06:48:50.722Z,80.99
2022-10-22T06:51:19.407Z,81.52
2022-10-22T06:53:49.541Z,81.99
2022-10-22T06:56:20.181Z,82.50
2022-10-22T06:58:49.560Z,82.94
2022-10-22T07:01:20.349Z,82.78
2022-10-22T07:03:48.855Z,82.85
2022-10-22T07:06:17.187Z,82.75
2022-10-22T07:08:45.617Z,83.25
2022-10-22T07:11:17.081Z,83.29
2022-10-22T07:13:47.905Z,82.99
2022-10-22T07:16:17.547Z,82.38
2022-10-22T07:18:46.381Z,82.66
2022-10-22T07:21:17.197Z,82.24
2022-10-22T07:23:45.983Z,82.07
2022-10-22T07:26:18.041Z,81.93
2022-10-22T07:28:46.303Z,81.69
2022-10-22T07:31:17.710Z,81.43
2022-10-22T07:33:46.189Z,81.36
2022-10-22T07:36:17.991Z,81.27
2022-10-22T07:38:46.979Z,81.05
2022-10-22T07:41:16.782Z,81.37
2022-10-22T07:43:45.659Z,81.23
2022-10-22T07:46:14.068Z,80.77
2022-10-22T07:48:42.524Z,80.57
2022-10-22T07:51:10.931Z,80.82
2022-10-22T07:53:39.407Z,80.64
2022-10-22T07:56:08.320Z,80.46
2022-10-22T07:58:38.097Z,80.16
2022-10-22T08:01:07.008Z,80.22
2022-10-22T08:03:35.918Z,79.76
2022-10-22T08:06:04.402Z,79.24
2022-10-22T08:08:33.576Z,79.07
2022-10-22T08:11:02.593Z,78.59
2022-10-22T08:13:31.762Z,78.32
2022-10-22T08:16:02.275Z,78.49
2022-10-22T08:18:30.919Z,78.34
2022-10-22T08:20:59.679Z,76.64
2022-10-22T08:23:29.026Z,76.38
2022-10-22T08:25:58.087Z,76.64
2022-10-22T08:28:28.688Z,76.71
2022-10-22T08:30:57.555Z,76.42
2022-10-22T08:33:27.342Z,76.50
2022-10-22T08:35:55.685Z,76.67
2022-10-22T08:38:24.064Z,77.61
2022-10-22T08:40:55.685Z,77.84
2022-10-22T08:43:35.616Z,78.06
2022-10-22T08:46:15.044Z,78.09
2022-10-22T08:48:47.923Z,77.77
2022-10-22T08:51:19.054Z,77.45
2022-10-22T08:53:55.153Z,76.98
2022-10-22T08:56:24.128Z,76.70
2022-10-22T08:58:55.595Z,77.06
2022-10-22T09:01:28.855Z,77.19
2022-10-22T09:04:12.885Z,77.29
2022-10-22T09:06:44.399Z,76.51
2022-10-22T09:09:15.891Z,76.60
2022-10-22T09:11:46.116Z,75.58
2022-10-22T09:16:56.243Z,74.68
2022-10-22T09:19:30.537Z,74.96
2022-10-22T09:22:02.632Z,74.27
2022-10-22T09:24:35.388Z,74.53
2022-10-22T09:27:04.003Z,75.21
2022-10-22T09:29:34.334Z,75.12
2022-10-22T09:32:02.883Z,75.07
2022-10-22T09:34:32.598Z,75.04
2022-10-22T09:37:02.645Z,76.22
2022-10-22T09:39:34.461Z,76.62
2022-10-22T09:42:03.834Z,76.60
2022-10-22T09:44:34.597Z,76.71
2022-10-22T09:47:06.251Z,75.59
2022-10-22T09:49:37.473Z,75.82
2022-10-22T09:52:29.545Z,75.58
2022-10-22T09:54:58.048Z,75.09
2022-10-22T09:57:27.608Z,75.07
2022-10-22T09:59:57.625Z,74.94
2022-10-22T10:02:38.321Z,74.90
2022-10-22T10:05:10.009Z,74.71
2022-10-22T10:07:38.677Z,74.34
2022-10-22T10:10:19.028Z,74.07
2022-10-22T10:12:52.382Z,74.18
2022-10-22T10:15:25.337Z,74.40
2022-10-22T10:18:03.870Z,74.35
2022-10-22T10:20:39.191Z,74.17
2022-10-22T10:23:10.618Z,74.36
2022-10-22T10:25:44.252Z,74.74
2022-10-22T10:28:42.864Z,74.61
2022-10-22T10:31:20.470Z,74.35
2022-10-22T10:33:55.066Z,74.09
2022-10-22T10:36:31.865Z,73.52
2022-10-22T10:39:05.069Z,74.03
2022-10-22T10:41:42.640Z,73.95
2022-10-22T10:44:39.363Z,73.78
2022-10-22T10:47:18.191Z,74.42
2022-10-22T10:49:47.508Z,74.52
2022-10-22T10:52:23.670Z,74.40
2022-10-22T10:55:00.755Z,74.67
2022-10-22T10:57:38.637Z,75.25
2022-10-22T11:00:08.738Z,74.89
2022-10-22T11:05:35.932Z,75.42
2022-10-22T11:08:11.322Z,75.69
2022-10-22T11:10:49.689Z,75.26
2022-10-22T11:13:23.986Z,75.11
2022-10-22T11:15:55.900Z,75.19
2022-10-22T11:18:28.955Z,74.39
2022-10-22T11:21:07.336Z,74.33
2022-10-22T11:23:39.687Z,74.70
2022-10-22T11:26:14.287Z,74.94
2022-10-22T11:28:46.928Z,75.18
2022-10-22T11:31:17.702Z,74.53
2022-10-22T11:33:54.608Z,74.90
2022-10-22T11:36:29.780Z,75.00
2022-10-22T11:38:59.547Z,75.08
2022-10-22T11:41:31.541Z,75.22
2022-10-22T11:44:10.830Z,75.05
2022-10-22T11:46:47.129Z,75.47
2022-10-22T11:49:24.562Z,75.17
2022-10-22T11:51:54.079Z,75.54
2022-10-22T11:54:42.820Z,75.48
2022-10-22T11:57:24.508Z,75.37
2022-10-22T11:59:54.749Z,74.99
2022-10-22T12:02:42.284Z,75.60
2022-10-22T12:05:44.533Z,75.63
2022-10-22T12:08:24.430Z,75.66
2022-10-22T12:11:01.949Z,75.62
2022-10-22T12:13:32.992Z,76.04
2022-10-22T12:16:04.268Z,75.61
2022-10-22T12:18:36.950Z,75.27
2022-10-22T12:21:05.648Z,75.24
2022-10-22T12:23:36.153Z,75.63
2022-10-22T12:26:07.096Z,75.18
2022-10-22T12:28:40.731Z,75.01
2022-10-22T12:31:17.284Z,74.38
2022-10-22T12:33:45.935Z,74.26
2022-10-22T12:36:19.103Z,74.52
2022-10-22T12:38:48.457Z,74.54
2022-10-22T12:41:18.761Z,74.35
2022-10-22T12:43:47.522Z,74.51
2022-10-22T12:46:17.533Z,74.33
2022-10-22T12:48:46.664Z,74.49
2022-10-22T12:51:19.182Z,74.87
2022-10-22T12:53:49.469Z,75.90
2022-10-22T12:56:22.901Z,77.01
2022-10-22T12:58:54.699Z,77.66
2022-10-22T13:01:23.175Z,78.84
2022-10-22T13:03:54.027Z,79.17
2022-10-22T13:06:27.380Z,79.37
2022-10-22T13:12:27.412Z,80.33
2022-10-22T13:14:56.277Z,79.91
2022-10-22T13:17:40.664Z,79.94
2022-10-22T13:20:18.814Z,80.66
2022-10-22T13:23:00.467Z,81.01
2022-10-22T13:25:30.738Z,80.93
2022-10-22T13:28:02.583Z,81.45
2022-10-22T13:30:32.848Z,81.28
2022-10-22T13:33:02.295Z,81.09
2022-10-22T13:35:33.430Z,81.36
2022-10-22T13:38:02.490Z,80.92
2022-10-22T13:40:30.908Z,80.78
2022-10-22T13:43:00.654Z,80.62
2022-10-22T13:45:29.055Z,80.72
2022-10-22T13:47:58.100Z,80.61
2022-10-22T13:50:27.010Z,80.21
2022-10-22T13:52:57.235Z,79.23
2022-10-22T13:55:27.338Z,78.93
2022-10-22T13:57:57.139Z,78.56
2022-10-22T14:00:27.169Z,79.07
2022-10-22T14:02:58.676Z,79.05
2022-10-22T14:05:27.617Z,79.27
2022-10-22T14:07:58.023Z,79.41
2022-10-22T14:10:26.739Z,78.99
2022-10-22T14:12:55.207Z,79.21
2022-10-22T14:15:26.102Z,78.71
2022-10-22T14:17:56.294Z,78.62
2022-10-22T14:20:25.832Z,79.02
2022-10-22T14:22:57.555Z,79.22
2022-10-22T14:25:27.070Z,79.49
2022-10-22T14:27:56.588Z,79.90
2022-10-22T14:30:29.860Z,79.73
2022-10-22T14:32:59.396Z,79.39
2022-10-22T14:35:27.858Z,79.77
2022-10-22T14:37:58.390Z,79.31
2022-10-22T14:40:26.838Z,79.43
2022-10-22T14:42:55.214Z,79.64
2022-10-22T14:45:25.320Z,79.57
2022-10-22T14:47:56.346Z,79.38
2022-10-22T14:50:25.591Z,79.28
2022-10-22T14:52:54.007Z,79.43
2022-10-22T14:55:22.417Z,79.74
2022-10-22T14:57:50.800Z,79.91
2022-10-22T15:00:20.001Z,79.67
2022-10-22T15:02:49.075Z,79.74
2022-10-22T15:05:19.104Z,79.78
2022-10-22T15:07:47.759Z,79.88
2022-10-22T15:10:16.232Z,80.24
2022-10-22T15:12:44.602Z,80.19
2022-10-22T15:15:13.268Z,80.39
2022-10-22T15:17:41.972Z,80.64
2022-10-22T15:20:11.105Z,80.26
2022-10-22T15:22:41.091Z,80.96
2022-10-22T15:25:10.355Z,81.01
2022-10-22T15:27:38.757Z,81.09
2022-10-22T15:30:08.966Z,81.48
2022-10-22T15:32:37.465Z,81.10
2022-10-22T15:35:07.569Z,81.31
2022-10-22T15:37:37.972Z,81.46
2022-10-22T15:40:09.309Z,81.33
2022-10-22T15:42:37.805Z,81.80
2022-10-22T15:45:06.989Z,82.07
2022-10-22T15:47:35.355Z,81.71
2022-10-22T15:50:03.864Z,81.96
2022-10-22T15:52:32.730Z,82.01
2022-10-22T15:55:04.277Z,81.80
2022-10-22T15:57:34.314Z,82.13
2022-10-22T16:00:02.778Z,82.15
2022-10-22T16:02:41.119Z,82.62
2022-10-22T16:05:10.526Z,82.53
2022-10-22T16:07:39.347Z,82.75
2022-10-22T16:10:09.532Z,82.76
2022-10-22T16:12:40.989Z,82.53
2022-10-22T16:15:11.391Z,82.99
2022-10-22T16:17:39.850Z,82.48
2022-10-22T16:20:09.086Z,82.19
2022-10-22T16:22:37.436Z,82.05
2022-10-22T16:25:06.799Z,81.75
2022-10-22T16:27:35.147Z,81.87
2022-10-22T16:30:05.383Z,81.95
2022-10-22T16:32:33.694Z,81.88
2022-10-22T16:35:02.129Z,82.21
2022-10-22T16:37:31.544Z,82.01
2022-10-22T16:40:03.007Z,82.15
2022-10-22T16:42:34.355Z,82.14
2022-10-22T16:45:27.911Z,82.15
2022-10-22T16:47:57.657Z,82.43
2022-10-22T16:50:26.118Z,82.27
2022-10-22T16:52:54.546Z,82.80
2022-10-22T16:55:23.128Z,82.38
2022-10-22T16:57:53.546Z,81.96
2022-10-22T17:00:22.304Z,81.67
2022-10-22T17:02:53.854Z,81.76
2022-10-22T17:05:24.517Z,81.82
2022-10-22T17:07:53.374Z,82.06
2022-10-22T17:12:55.268Z,81.96
2022-10-22T17:15:23.703Z,81.90
2022-10-22T17:17:53.871Z,82.06
2022-10-22T17:20:24.331Z,81.72
2022-10-22T17:22:52.802Z,81.98
2022-10-22T17:25:24.281Z,82.01
2022-10-22T17:27:54.734Z,81.69
2022-10-22T17:30:27.264Z,81.70
2022-10-22T17:32:56.064Z,81.16
2022-10-22T17:37:59.279Z,81.19
2022-10-22T17:40:27.858Z,81.57
2022-10-22T17:42:57.308Z,81.50
2022-10-22T17:45:25.694Z,81.00
2022-10-22T17:47:54.123Z,81.57
2022-10-22T17:50:22.481Z,81.23
2022-10-22T17:52:52.245Z,81.35
2022-10-22T17:55:20.582Z,81.30
2022-10-22T17:57:49.023Z,81.56
2022-10-22T18:00:22.155Z,81.44
2022-10-22T18:02:50.739Z,81.52
2022-10-22T18:05:19.263Z,81.31
2022-10-22T18:07:47.760Z,81.57
2022-10-22T18:10:17.652Z,81.85
2022-10-22T18:12:47.158Z,81.48
2022-10-22T18:15:15.718Z,81.14
2022-10-22T18:17:45.062Z,81.00
2022-10-22T18:20:14.106Z,81.41
2022-10-22T18:22:42.730Z,81.31
2022-10-22T18:25:11.754Z,81.62
2022-10-22T18:27:42.843Z,81.27
2022-10-22T18:30:12.194Z,81.45
2022-10-22T18:32:40.657Z,81.44
2022-10-22T18:35:09.277Z,81.29
2022-10-22T18:37:39.659Z,81.72
2022-10-22T18:40:13.671Z,81.63
2022-10-22T18:42:45.021Z,81.60
2022-10-22T18:45:13.769Z,81.41
2022-10-22T18:47:42.339Z,81.50
2022-10-22T18:50:11.285Z,81.35
2022-10-22T18:52:39.961Z,81.56
2022-10-22T18:55:09.268Z,81.42
2022-10-22T18:57:37.669Z,81.38
2022-10-22T19:00:09.345Z,81.30
2022-10-22T19:02:39.038Z,81.62
2022-10-22T19:05:08.520Z,81.13
2022-10-22T19:07:37.659Z,81.58
2022-10-22T19:10:06.886Z,81.60
2022-10-22T19:12:35.311Z,81.21
2022-10-22T19:15:03.823Z,81.68
2022-10-22T19:17:33.753Z,81.76
2022-10-22T19:20:02.257Z,81.28
2022-10-22T19:22:31.552Z,81.59
2022-10-22T19:25:00.381Z,81.44
2022-10-22T19:27:28.863Z,81.08
2022-10-22T19:29:57.430Z,81.43
2022-10-22T19:32:28.782Z,80.79
2022-10-22T19:35:00.753Z,81.00
2022-10-22T19:37:29.208Z,81.58
2022-10-22T19:39:57.712Z,81.04
2022-10-22T19:42:26.579Z,81.55
2022-10-22T19:44:54.935Z,81.73
2022-10-22T19:47:23.421Z,81.23
2022-10-22T19:49:51.751Z,81.68
2022-10-22T19:52:21.513Z,81.06
2022-10-22T19:54:50.465Z,81.33
2022-10-22T19:57:20.040Z,81.49
2022-10-22T19:59:48.410Z,81.71
2022-10-22T20:02:18.450Z,80.96
2022-10-22T20:04:49.863Z,81.37
2022-10-22T20:07:19.044Z,81.08
2022-10-22T20:09:48.803Z,81.08
2022-10-22T20:12:17.351Z,80.63
2022-10-22T20:14:45.751Z,80.38
2022-10-22T20:17:14.267Z,80.56
2022-10-22T20:19:42.955Z,80.65
2022-10-22T20:22:13.686Z,80.68
2022-10-22T20:24:44.711Z,80.74
2022-10-22T20:27:14.914Z,80.95
2022-10-22T20:29:43.293Z,80.68
2022-10-22T20:32:11.782Z,80.97
2022-10-22T20:34:41.755Z,80.77
2022-10-22T20:37:10.136Z,81.25
2022-10-22T20:39:38.588Z,81.27
2022-10-22T20:42:07.009Z,80.91
2022-10-22T20:44:36.902Z,80.67
2022-10-22T20:47:05.296Z,81.04
2022-10-22T20:49:34.031Z,80.78
2022-10-22T20:52:02.395Z,80.63
2022-10-22T20:54:30.921Z,80.72
2022-10-22T20:56:59.686Z,81.05
2022-10-22T20:59:33.091Z,81.22
2022-10-22T21:02:03.189Z,80.84
2022-10-22T21:04:31.871Z,81.22
2022-10-22T21:07:00.373Z,81.02
2022-10-22T21:09:29.258Z,81.08
2022-10-22T21:11:58.304Z,80.97
2022-10-22T21:14:26.793Z,81.09
2022-10-22T21:16:55.160Z,80.67
2022-10-22T21:19:25.391Z,81.09
2022-10-22T21:21:53.957Z,80.24
2022-10-22T21:24:24.855Z,80.40
2022-10-22T21:26:54.500Z,80.37
2022-10-22T21:29:23.040Z,80.62
2022-10-22T21:31:51.468Z,79.96
2022-10-22T21:34:19.845Z,80.17
2022-10-22T21:36:49.680Z,79.68
2022-10-22T21:39:18.120Z,79.79
2022-10-22T21:41:46.605Z,80.37
2022-10-22T21:44:15.007Z,80.12
2022-10-22T21:46:43.592Z,79.89
2022-10-22T21:49:12.176Z,80.45
2022-10-22T21:51:40.566Z,80.35
2022-10-22T21:54:12.428Z,79.63
2022-10-22T21:56:40.923Z,79.97
2022-10-22T21:59:09.626Z,80.05
2022-10-22T22:01:38.185Z,79.37
2022-10-22T22:04:07.759Z,79.69
2022-10-22T22:06:36.392Z,79.77
2022-10-22T22:09:06.021Z,79.60
2022-10-22T22:11:36.820Z,79.32
2022-10-22T22:14:05.226Z,79.42
2022-10-22T22:16:35.542Z,79.37
2022-10-22T22:19:07.103Z,80.02
2022-10-22T22:21:36.201Z,79.61
2022-10-22T22:24:05.242Z,80.17
2022-10-22T22:26:33.857Z,78.98
2022-10-22T22:29:04.253Z,80.10
2022-10-22T22:31:34.570Z,79.50
2022-10-22T22:34:06.083Z,79.69
2022-10-22T22:36:36.217Z,79.57
2022-10-22T22:39:05.230Z,80.07
2022-10-22T22:41:33.699Z,79.85
2022-10-22T22:44:03.669Z,80.12
2022-10-22T22:46:32.764Z,79.53
2022-10-22T22:49:01.921Z,79.57
2022-10-22T22:51:30.395Z,79.84
2022-10-22T22:53:59.131Z,79.61
2022-10-22T22:56:29.346Z,79.73
2022-10-22T22:58:58.113Z,79.00
2022-10-22T23:01:30.427Z,78.77
2022-10-22T23:04:00.980Z,79.61
2022-10-22T23:06:31.528Z,79.63
2022-10-22T23:09:00.297Z,79.50
2022-10-22T23:11:29.481Z,79.49
2022-10-22T23:14:00.261Z,79.69
2022-10-22T23:16:31.380Z,79.31
2022-10-22T23:19:01.113Z,79.12
2022-10-22T23:21:31.042Z,79.13
2022-10-22T23:24:02.534Z,79.26
2022-10-22T23:26:32.660Z,79.33
2022-10-22T23:29:02.229Z,79.08
2022-10-22T23:31:32.178Z,79.15
2022-10-22T23:34:00.745Z,79.04
2022-10-22T23:36:29.204Z,79.18
2022-10-22T23:38:57.777Z,78.80
2022-10-22T23:41:26.354Z,79.23
2022-10-22T23:43:55.016Z,79.04
2022-10-22T23:46:23.675Z,79.67
2022-10-22T23:48:53.981Z,79.26
2022-10-22T23:51:22.648Z,78.75
2022-10-22T23:53:56.565Z,79.54
2022-10-22T23:56:25.341Z,79.41
2022-10-22T23:58:54.554Z,79.34
